sensor_id;sensor_type;location;lat;lon;timestamp;P1;durP1;ratioP1;P2;durP2;ratioP2
55364;SDS011;41245;45.384;20.390;2022-07-04T00:00:35;23.67;;;11.02;;
55364;SDS011;41245;45.384;20.390;2022-07-04T00:03:01;13.07;;;9.95;;
55364;SDS011;41245;45.384;20.390;2022-07-04T00:05:27;15.82;;;10.10;;
55364;SDS011;41245;45.384;20.390;2022-07-04T00:07:52;16.13;;;10.05;;
55364;SDS011;41245;45.384;20.390;2022-07-04T00:10:18;17.80;;;10.05;;
55364;SDS011;41245;45.384;20.390;2022-07-04T00:12:45;19.52;;;9.88;;
55364;SDS011;41245;45.384;20.390;2022-07-04T00:15:12;24.58;;;10.23;;
55364;SDS011;41245;45.384;20.390;2022-07-04T00:17:38;17.83;;;9.90;;
55364;SDS011;41245;45.384;20.390;2022-07-04T00:20:05;21.45;;;9.90;;
55364;SDS011;41245;45.384;20.390;2022-07-04T00:22:32;22.38;;;10.98;;
55364;SDS011;41245;45.384;20.390;2022-07-04T00:24:58;17.92;;;9.98;;
55364;SDS011;41245;45.384;20.390;2022-07-04T00:27:24;20.85;;;10.43;;
55364;SDS011;41245;45.384;20.390;2022-07-04T00:29:50;23.80;;;10.25;;
55364;SDS011;41245;45.384;20.390;2022-07-04T00:32:17;22.10;;;11.48;;
55364;SDS011;41245;45.384;20.390;2022-07-04T00:34:43;22.00;;;10.60;;
55364;SDS011;41245;45.384;20.390;2022-07-04T00:37:09;19.50;;;10.25;;
55364;SDS011;41245;45.384;20.390;2022-07-04T00:39:35;17.02;;;10.02;;
55364;SDS011;41245;45.384;20.390;2022-07-04T00:42:01;19.88;;;11.90;;
55364;SDS011;41245;45.384;20.390;2022-07-04T00:44:27;24.90;;;11.07;;
55364;SDS011;41245;45.384;20.390;2022-07-04T00:46:52;19.35;;;11.48;;
55364;SDS011;41245;45.384;20.390;2022-07-04T00:49:18;16.73;;;10.38;;
55364;SDS011;41245;45.384;20.390;2022-07-04T00:51:44;21.88;;;11.40;;
55364;SDS011;41245;45.384;20.390;2022-07-04T00:54:11;13.55;;;10.85;;
55364;SDS011;41245;45.384;20.390;2022-07-04T00:56:40;18.50;;;10.18;;
55364;SDS011;41245;45.384;20.390;2022-07-04T00:59:07;20.17;;;11.38;;
55364;SDS011;41245;45.384;20.390;2022-07-04T01:01:34;20.80;;;11.32;;
55364;SDS011;41245;45.384;20.390;2022-07-04T01:04:01;14.30;;;11.52;;
55364;SDS011;41245;45.384;20.390;2022-07-04T01:06:28;22.80;;;11.00;;
55364;SDS011;41245;45.384;20.390;2022-07-04T01:08:55;22.45;;;12.00;;
55364;SDS011;41245;45.384;20.390;2022-07-04T01:11:21;20.30;;;12.35;;
55364;SDS011;41245;45.384;20.390;2022-07-04T01:13:47;20.17;;;12.68;;
55364;SDS011;41245;45.384;20.390;2022-07-04T01:16:13;19.35;;;11.95;;
55364;SDS011;41245;45.384;20.390;2022-07-04T01:18:39;17.92;;;12.50;;
55364;SDS011;41245;45.384;20.390;2022-07-04T01:21:05;16.40;;;12.57;;
55364;SDS011;41245;45.384;20.390;2022-07-04T01:23:31;19.80;;;12.63;;
55364;SDS011;41245;45.384;20.390;2022-07-04T01:26:01;25.50;;;14.25;;
55364;SDS011;41245;45.384;20.390;2022-07-04T01:28:27;22.75;;;12.68;;
55364;SDS011;41245;45.384;20.390;2022-07-04T01:30:53;17.90;;;12.57;;
55364;SDS011;41245;45.384;20.390;2022-07-04T01:33:19;18.65;;;12.77;;
55364;SDS011;41245;45.384;20.390;2022-07-04T01:35:45;26.70;;;12.85;;
55364;SDS011;41245;45.384;20.390;2022-07-04T01:38:11;18.50;;;13.13;;
55364;SDS011;41245;45.384;20.390;2022-07-04T01:40:37;16.80;;;12.63;;
55364;SDS011;41245;45.384;20.390;2022-07-04T01:43:03;15.93;;;12.77;;
55364;SDS011;41245;45.384;20.390;2022-07-04T01:45:29;17.90;;;13.25;;
55364;SDS011;41245;45.384;20.390;2022-07-04T01:47:55;20.75;;;12.63;;
55364;SDS011;41245;45.384;20.390;2022-07-04T01:50:22;20.23;;;13.60;;
55364;SDS011;41245;45.384;20.390;2022-07-04T01:52:47;23.25;;;12.93;;
55364;SDS011;41245;45.384;20.390;2022-07-04T01:55:13;23.38;;;13.73;;
55364;SDS011;41245;45.384;20.390;2022-07-04T01:57:39;25.15;;;12.07;;
55364;SDS011;41245;45.384;20.390;2022-07-04T02:00:07;18.55;;;12.80;;
55364;SDS011;41245;45.384;20.390;2022-07-04T02:02:55;23.38;;;13.18;;
55364;SDS011;41245;45.384;20.390;2022-07-04T02:05:20;16.73;;;12.07;;
55364;SDS011;41245;45.384;20.390;2022-07-04T02:07:47;19.20;;;12.20;;
55364;SDS011;41245;45.384;20.390;2022-07-04T02:10:13;17.85;;;11.93;;
55364;SDS011;41245;45.384;20.390;2022-07-04T02:12:39;21.42;;;12.57;;
55364;SDS011;41245;45.384;20.390;2022-07-04T02:15:23;15.60;;;11.45;;
55364;SDS011;41245;45.384;20.390;2022-07-04T02:17:49;16.42;;;12.85;;
55364;SDS011;41245;45.384;20.390;2022-07-04T02:20:15;19.17;;;11.70;;
55364;SDS011;41245;45.384;20.390;2022-07-04T02:22:41;24.27;;;13.13;;
55364;SDS011;41245;45.384;20.390;2022-07-04T02:25:07;22.75;;;13.43;;
55364;SDS011;41245;45.384;20.390;2022-07-04T02:27:33;20.40;;;12.65;;
55364;SDS011;41245;45.384;20.390;2022-07-04T02:29:58;25.45;;;13.15;;
55364;SDS011;41245;45.384;20.390;2022-07-04T02:32:24;26.65;;;12.95;;
55364;SDS011;41245;45.384;20.390;2022-07-04T02:34:50;19.42;;;13.82;;
55364;SDS011;41245;45.384;20.390;2022-07-04T02:37:16;23.35;;;12.52;;
55364;SDS011;41245;45.384;20.390;2022-07-04T02:39:42;26.77;;;12.75;;
55364;SDS011;41245;45.384;20.390;2022-07-04T02:42:08;21.52;;;12.30;;
55364;SDS011;41245;45.384;20.390;2022-07-04T02:44:34;24.23;;;13.65;;
55364;SDS011;41245;45.384;20.390;2022-07-04T02:47:00;27.30;;;12.52;;
55364;SDS011;41245;45.384;20.390;2022-07-04T02:49:26;21.30;;;12.90;;
55364;SDS011;41245;45.384;20.390;2022-07-04T02:51:52;20.65;;;13.68;;
55364;SDS011;41245;45.384;20.390;2022-07-04T02:54:17;21.58;;;13.80;;
55364;SDS011;41245;45.384;20.390;2022-07-04T02:56:43;17.23;;;11.73;;
55364;SDS011;41245;45.384;20.390;2022-07-04T02:59:09;18.02;;;12.68;;
55364;SDS011;41245;45.384;20.390;2022-07-04T03:01:35;17.98;;;13.80;;
55364;SDS011;41245;45.384;20.390;2022-07-04T03:04:01;24.15;;;13.38;;
55364;SDS011;41245;45.384;20.390;2022-07-04T03:06:27;24.40;;;14.15;;
55364;SDS011;41245;45.384;20.390;2022-07-04T03:08:53;22.30;;;13.13;;
55364;SDS011;41245;45.384;20.390;2022-07-04T03:11:19;23.00;;;12.50;;
55364;SDS011;41245;45.384;20.390;2022-07-04T03:13:45;16.88;;;13.60;;
55364;SDS011;41245;45.384;20.390;2022-07-04T03:16:10;16.30;;;13.23;;
55364;SDS011;41245;45.384;20.390;2022-07-04T03:18:37;21.52;;;13.27;;
55364;SDS011;41245;45.384;20.390;2022-07-04T03:21:03;19.17;;;14.05;;
55364;SDS011;41245;45.384;20.390;2022-07-04T03:23:30;19.83;;;13.07;;
55364;SDS011;41245;45.384;20.390;2022-07-04T03:25:56;21.95;;;14.10;;
55364;SDS011;41245;45.384;20.390;2022-07-04T03:28:22;21.95;;;13.80;;
55364;SDS011;41245;45.384;20.390;2022-07-04T03:30:48;30.58;;;14.07;;
55364;SDS011;41245;45.384;20.390;2022-07-04T03:33:13;15.82;;;12.43;;
55364;SDS011;41245;45.384;20.390;2022-07-04T03:35:39;18.58;;;13.13;;
55364;SDS011;41245;45.384;20.390;2022-07-04T03:38:05;23.48;;;12.90;;
55364;SDS011;41245;45.384;20.390;2022-07-04T03:40:31;26.45;;;13.73;;
55364;SDS011;41245;45.384;20.390;2022-07-04T03:42:58;24.20;;;12.85;;
55364;SDS011;41245;45.384;20.390;2022-07-04T03:45:24;19.30;;;12.98;;
55364;SDS011;41245;45.384;20.390;2022-07-04T03:47:50;27.27;;;13.77;;
55364;SDS011;41245;45.384;20.390;2022-07-04T03:50:16;28.35;;;14.00;;
55364;SDS011;41245;45.384;20.390;2022-07-04T03:52:42;19.63;;;13.85;;
55364;SDS011;41245;45.384;20.390;2022-07-04T03:55:08;24.95;;;12.48;;
55364;SDS011;41245;45.384;20.390;2022-07-04T03:57:34;22.65;;;13.43;;
55364;SDS011;41245;45.384;20.390;2022-07-04T04:00:00;23.02;;;12.80;;
55364;SDS011;41245;45.384;20.390;2022-07-04T04:02:26;30.63;;;12.82;;
55364;SDS011;41245;45.384;20.390;2022-07-04T04:04:52;39.90;;;12.85;;
55364;SDS011;41245;45.384;20.390;2022-07-04T04:07:36;19.08;;;12.60;;
55364;SDS011;41245;45.384;20.390;2022-07-04T04:10:02;22.65;;;12.00;;
55364;SDS011;41245;45.384;20.390;2022-07-04T04:12:28;18.77;;;13.13;;
55364;SDS011;41245;45.384;20.390;2022-07-04T04:14:54;19.20;;;14.65;;
55364;SDS011;41245;45.384;20.390;2022-07-04T04:17:20;20.73;;;13.32;;
55364;SDS011;41245;45.384;20.390;2022-07-04T04:19:45;24.33;;;13.38;;
55364;SDS011;41245;45.384;20.390;2022-07-04T04:22:11;20.75;;;14.60;;
55364;SDS011;41245;45.384;20.390;2022-07-04T04:24:37;23.23;;;14.43;;
55364;SDS011;41245;45.384;20.390;2022-07-04T04:27:02;33.75;;;15.45;;
55364;SDS011;41245;45.384;20.390;2022-07-04T04:29:28;23.83;;;14.73;;
55364;SDS011;41245;45.384;20.390;2022-07-04T04:31:54;16.88;;;13.88;;
55364;SDS011;41245;45.384;20.390;2022-07-04T04:34:20;20.05;;;13.75;;
55364;SDS011;41245;45.384;20.390;2022-07-04T04:36:45;26.00;;;15.07;;
55364;SDS011;41245;45.384;20.390;2022-07-04T04:39:11;20.05;;;14.52;;
55364;SDS011;41245;45.384;20.390;2022-07-04T04:41:38;19.60;;;13.90;;
55364;SDS011;41245;45.384;20.390;2022-07-04T04:44:04;20.77;;;13.77;;
55364;SDS011;41245;45.384;20.390;2022-07-04T04:46:30;27.42;;;14.25;;
55364;SDS011;41245;45.384;20.390;2022-07-04T04:48:56;31.27;;;14.65;;
55364;SDS011;41245;45.384;20.390;2022-07-04T04:51:22;22.73;;;16.33;;
55364;SDS011;41245;45.384;20.390;2022-07-04T04:53:47;26.17;;;14.90;;
55364;SDS011;41245;45.384;20.390;2022-07-04T04:56:13;19.85;;;14.40;;
55364;SDS011;41245;45.384;20.390;2022-07-04T04:58:39;27.35;;;16.10;;
55364;SDS011;41245;45.384;20.390;2022-07-04T05:01:05;21.02;;;14.07;;
55364;SDS011;41245;45.384;20.390;2022-07-04T05:03:31;30.98;;;15.70;;
55364;SDS011;41245;45.384;20.390;2022-07-04T05:05:56;16.08;;;14.35;;
55364;SDS011;41245;45.384;20.390;2022-07-04T05:08:22;22.45;;;14.00;;
55364;SDS011;41245;45.384;20.390;2022-07-04T05:10:50;24.58;;;14.57;;
55364;SDS011;41245;45.384;20.390;2022-07-04T05:13:18;18.67;;;12.50;;
55364;SDS011;41245;45.384;20.390;2022-07-04T05:15:44;25.58;;;13.30;;
55364;SDS011;41245;45.384;20.390;2022-07-04T05:18:11;21.35;;;12.65;;
55364;SDS011;41245;45.384;20.390;2022-07-04T05:20:37;16.38;;;9.70;;
55364;SDS011;41245;45.384;20.390;2022-07-04T05:23:04;18.77;;;10.15;;
55364;SDS011;41245;45.384;20.390;2022-07-04T05:25:30;17.10;;;9.13;;
55364;SDS011;41245;45.384;20.390;2022-07-04T05:27:56;16.10;;;8.75;;
55364;SDS011;41245;45.384;20.390;2022-07-04T05:30:21;16.50;;;9.00;;
55364;SDS011;41245;45.384;20.390;2022-07-04T05:32:47;13.65;;;8.40;;
55364;SDS011;41245;45.384;20.390;2022-07-04T05:35:13;16.98;;;7.95;;
55364;SDS011;41245;45.384;20.390;2022-07-04T05:37:39;20.83;;;8.23;;
55364;SDS011;41245;45.384;20.390;2022-07-04T05:40:04;16.83;;;7.18;;
55364;SDS011;41245;45.384;20.390;2022-07-04T05:42:30;14.77;;;7.68;;
55364;SDS011;41245;45.384;20.390;2022-07-04T05:44:56;11.32;;;7.82;;
55364;SDS011;41245;45.384;20.390;2022-07-04T05:47:22;11.25;;;7.70;;
55364;SDS011;41245;45.384;20.390;2022-07-04T05:49:49;17.52;;;8.68;;
55364;SDS011;41245;45.384;20.390;2022-07-04T05:52:16;13.15;;;7.95;;
55364;SDS011;41245;45.384;20.390;2022-07-04T05:54:42;17.58;;;7.80;;
55364;SDS011;41245;45.384;20.390;2022-07-04T05:57:07;15.02;;;8.07;;
55364;SDS011;41245;45.384;20.390;2022-07-04T05:59:33;17.00;;;7.93;;
55364;SDS011;41245;45.384;20.390;2022-07-04T06:01:59;14.25;;;7.43;;
55364;SDS011;41245;45.384;20.390;2022-07-04T06:04:25;14.23;;;7.95;;
55364;SDS011;41245;45.384;20.390;2022-07-04T06:06:51;17.20;;;8.02;;
55364;SDS011;41245;45.384;20.390;2022-07-04T06:09:17;12.27;;;7.05;;
55364;SDS011;41245;45.384;20.390;2022-07-04T06:11:43;8.95;;;6.65;;
55364;SDS011;41245;45.384;20.390;2022-07-04T06:14:08;18.70;;;7.63;;
55364;SDS011;41245;45.384;20.390;2022-07-04T06:16:34;14.07;;;7.38;;
55364;SDS011;41245;45.384;20.390;2022-07-04T06:19:00;11.82;;;6.43;;
55364;SDS011;41245;45.384;20.390;2022-07-04T06:21:26;13.15;;;6.85;;
55364;SDS011;41245;45.384;20.390;2022-07-04T06:23:51;8.43;;;6.22;;
55364;SDS011;41245;45.384;20.390;2022-07-04T06:26:17;12.63;;;6.05;;
55364;SDS011;41245;45.384;20.390;2022-07-04T06:28:43;8.18;;;6.18;;
55364;SDS011;41245;45.384;20.390;2022-07-04T06:31:10;9.00;;;5.47;;
55364;SDS011;41245;45.384;20.390;2022-07-04T06:33:37;6.22;;;4.68;;
55364;SDS011;41245;45.384;20.390;2022-07-04T06:36:22;7.45;;;5.55;;
55364;SDS011;41245;45.384;20.390;2022-07-04T06:38:48;13.98;;;4.70;;
55364;SDS011;41245;45.384;20.390;2022-07-04T06:41:14;8.57;;;4.95;;
55364;SDS011;41245;45.384;20.390;2022-07-04T06:43:40;11.98;;;5.40;;
55364;SDS011;41245;45.384;20.390;2022-07-04T06:46:06;7.50;;;4.90;;
55364;SDS011;41245;45.384;20.390;2022-07-04T06:48:32;13.35;;;5.68;;
55364;SDS011;41245;45.384;20.390;2022-07-04T06:50:58;11.10;;;4.93;;
55364;SDS011;41245;45.384;20.390;2022-07-04T06:53:23;15.65;;;6.43;;
55364;SDS011;41245;45.384;20.390;2022-07-04T06:55:49;10.23;;;5.85;;
55364;SDS011;41245;45.384;20.390;2022-07-04T06:58:15;15.10;;;6.75;;
55364;SDS011;41245;45.384;20.390;2022-07-04T07:00:41;16.40;;;6.38;;
55364;SDS011;41245;45.384;20.390;2022-07-04T07:03:07;14.48;;;5.68;;
55364;SDS011;41245;45.384;20.390;2022-07-04T07:05:33;11.43;;;5.57;;
55364;SDS011;41245;45.384;20.390;2022-07-04T07:08:02;15.90;;;6.47;;
55364;SDS011;41245;45.384;20.390;2022-07-04T07:10:29;14.40;;;6.20;;
55364;SDS011;41245;45.384;20.390;2022-07-04T07:12:57;13.20;;;6.13;;
55364;SDS011;41245;45.384;20.390;2022-07-04T07:15:23;16.52;;;6.05;;
55364;SDS011;41245;45.384;20.390;2022-07-04T07:17:49;8.18;;;5.25;;
55364;SDS011;41245;45.384;20.390;2022-07-04T07:20:15;7.90;;;5.93;;
55364;SDS011;41245;45.384;20.390;2022-07-04T07:22:41;11.85;;;5.60;;
55364;SDS011;41245;45.384;20.390;2022-07-04T07:25:07;12.25;;;5.82;;
55364;SDS011;41245;45.384;20.390;2022-07-04T07:27:38;7.40;;;5.53;;
55364;SDS011;41245;45.384;20.390;2022-07-04T07:30:04;11.77;;;5.28;;
55364;SDS011;41245;45.384;20.390;2022-07-04T07:32:30;10.90;;;6.00;;
55364;SDS011;41245;45.384;20.390;2022-07-04T07:34:56;16.15;;;5.78;;
55364;SDS011;41245;45.384;20.390;2022-07-04T07:37:22;20.08;;;7.82;;
55364;SDS011;41245;45.384;20.390;2022-07-04T07:39:48;10.15;;;5.53;;
55364;SDS011;41245;45.384;20.390;2022-07-04T07:42:15;10.75;;;6.63;;
55364;SDS011;41245;45.384;20.390;2022-07-04T07:44:41;10.73;;;5.85;;
55364;SDS011;41245;45.384;20.390;2022-07-04T07:52:06;8.90;;;5.10;;
55364;SDS011;41245;45.384;20.390;2022-07-04T07:54:32;6.78;;;5.68;;
55364;SDS011;41245;45.384;20.390;2022-07-04T07:56:58;7.95;;;4.82;;
55364;SDS011;41245;45.384;20.390;2022-07-04T07:59:23;9.35;;;4.30;;
55364;SDS011;41245;45.384;20.390;2022-07-04T08:04:33;4.57;;;3.60;;
55364;SDS011;41245;45.384;20.390;2022-07-04T08:07:06;14.02;;;3.80;;
55364;SDS011;41245;45.384;20.390;2022-07-04T08:09:34;7.03;;;3.95;;
55364;SDS011;41245;45.384;20.390;2022-07-04T08:12:00;8.50;;;4.65;;
55364;SDS011;41245;45.384;20.390;2022-07-04T08:14:28;6.70;;;4.32;;
55364;SDS011;41245;45.384;20.390;2022-07-04T08:16:54;5.05;;;4.03;;
55364;SDS011;41245;45.384;20.390;2022-07-04T08:19:20;6.55;;;3.17;;
55364;SDS011;41245;45.384;20.390;2022-07-04T08:21:46;10.90;;;3.95;;
55364;SDS011;41245;45.384;20.390;2022-07-04T08:24:13;7.05;;;3.50;;
55364;SDS011;41245;45.384;20.390;2022-07-04T08:26:39;4.68;;;3.20;;
55364;SDS011;41245;45.384;20.390;2022-07-04T08:29:05;10.00;;;3.55;;
55364;SDS011;41245;45.384;20.390;2022-07-04T08:31:43;4.00;;;2.88;;
55364;SDS011;41245;45.384;20.390;2022-07-04T08:34:09;8.98;;;4.40;;
55364;SDS011;41245;45.384;20.390;2022-07-04T08:36:35;3.80;;;3.03;;
55364;SDS011;41245;45.384;20.390;2022-07-04T08:39:00;4.72;;;3.08;;
55364;SDS011;41245;45.384;20.390;2022-07-04T08:41:26;6.95;;;3.25;;
55364;SDS011;41245;45.384;20.390;2022-07-04T08:43:53;5.20;;;2.78;;
55364;SDS011;41245;45.384;20.390;2022-07-04T08:46:21;6.80;;;3.03;;
55364;SDS011;41245;45.384;20.390;2022-07-04T08:48:54;9.20;;;2.60;;
55364;SDS011;41245;45.384;20.390;2022-07-04T08:51:27;8.50;;;4.22;;
55364;SDS011;41245;45.384;20.390;2022-07-04T08:53:56;5.07;;;2.60;;
55364;SDS011;41245;45.384;20.390;2022-07-04T08:56:22;4.70;;;3.20;;
55364;SDS011;41245;45.384;20.390;2022-07-04T08:59:08;4.30;;;3.10;;
55364;SDS011;41245;45.384;20.390;2022-07-04T09:01:34;7.55;;;2.63;;
55364;SDS011;41245;45.384;20.390;2022-07-04T09:04:01;6.00;;;3.83;;
55364;SDS011;41245;45.384;20.390;2022-07-04T09:06:27;4.88;;;3.03;;
55364;SDS011;41245;45.384;20.390;2022-07-04T09:08:54;5.53;;;2.80;;
55364;SDS011;41245;45.384;20.390;2022-07-04T09:11:20;7.15;;;2.80;;
55364;SDS011;41245;45.384;20.390;2022-07-04T09:13:46;5.93;;;3.22;;
55364;SDS011;41245;45.384;20.390;2022-07-04T09:16:13;5.45;;;2.75;;
55364;SDS011;41245;45.384;20.390;2022-07-04T09:18:39;7.80;;;3.35;;
55364;SDS011;41245;45.384;20.390;2022-07-04T09:21:06;5.88;;;3.00;;
55364;SDS011;41245;45.384;20.390;2022-07-04T09:23:33;4.53;;;3.10;;
55364;SDS011;41245;45.384;20.390;2022-07-04T09:26:09;5.43;;;3.13;;
55364;SDS011;41245;45.384;20.390;2022-07-04T09:28:35;8.45;;;3.20;;
55364;SDS011;41245;45.384;20.390;2022-07-04T09:31:01;6.80;;;3.03;;
55364;SDS011;41245;45.384;20.390;2022-07-04T09:33:43;5.70;;;2.58;;
55364;SDS011;41245;45.384;20.390;2022-07-04T09:36:13;10.60;;;2.47;;
55364;SDS011;41245;45.384;20.390;2022-07-04T09:38:39;10.23;;;2.85;;
55364;SDS011;41245;45.384;20.390;2022-07-04T09:41:05;7.18;;;2.78;;
55364;SDS011;41245;45.384;20.390;2022-07-04T09:43:59;10.07;;;3.33;;
55364;SDS011;41245;45.384;20.390;2022-07-04T09:46:30;8.20;;;3.30;;
55364;SDS011;41245;45.384;20.390;2022-07-04T09:48:56;4.95;;;3.05;;
55364;SDS011;41245;45.384;20.390;2022-07-04T09:54:21;6.38;;;3.17;;
55364;SDS011;41245;45.384;20.390;2022-07-04T09:56:56;9.02;;;3.05;;
55364;SDS011;41245;45.384;20.390;2022-07-04T09:59:27;7.45;;;3.20;;
55364;SDS011;41245;45.384;20.390;2022-07-04T10:02:07;12.02;;;3.25;;
55364;SDS011;41245;45.384;20.390;2022-07-04T10:04:50;11.25;;;4.55;;
55364;SDS011;41245;45.384;20.390;2022-07-04T10:07:30;7.25;;;3.72;;
55364;SDS011;41245;45.384;20.390;2022-07-04T10:09:56;7.88;;;3.97;;
55364;SDS011;41245;45.384;20.390;2022-07-04T10:12:28;15.25;;;3.53;;
55364;SDS011;41245;45.384;20.390;2022-07-04T10:14:56;5.68;;;3.35;;
55364;SDS011;41245;45.384;20.390;2022-07-04T10:17:22;23.17;;;3.80;;
55364;SDS011;41245;45.384;20.390;2022-07-04T10:19:48;5.10;;;2.60;;
55364;SDS011;41245;45.384;20.390;2022-07-04T10:22:17;8.00;;;2.42;;
55364;SDS011;41245;45.384;20.390;2022-07-04T10:24:43;6.20;;;2.85;;
55364;SDS011;41245;45.384;20.390;2022-07-04T10:27:10;7.00;;;2.47;;
55364;SDS011;41245;45.384;20.390;2022-07-04T10:29:36;6.72;;;2.88;;
55364;SDS011;41245;45.384;20.390;2022-07-04T10:32:02;4.88;;;2.47;;
55364;SDS011;41245;45.384;20.390;2022-07-04T10:34:38;8.30;;;2.63;;
55364;SDS011;41245;45.384;20.390;2022-07-04T10:37:04;6.40;;;3.17;;
55364;SDS011;41245;45.384;20.390;2022-07-04T10:39:30;3.63;;;2.33;;
55364;SDS011;41245;45.384;20.390;2022-07-04T10:41:56;5.45;;;2.47;;
55364;SDS011;41245;45.384;20.390;2022-07-04T10:44:26;7.53;;;2.15;;
55364;SDS011;41245;45.384;20.390;2022-07-04T10:47:00;7.20;;;3.15;;
55364;SDS011;41245;45.384;20.390;2022-07-04T10:49:26;4.70;;;3.15;;
55364;SDS011;41245;45.384;20.390;2022-07-04T10:54:22;6.22;;;2.53;;
55364;SDS011;41245;45.384;20.390;2022-07-04T10:56:57;5.82;;;3.00;;
55364;SDS011;41245;45.384;20.390;2022-07-04T11:07:20;6.10;;;2.88;;
55364;SDS011;41245;45.384;20.390;2022-07-04T11:17:54;7.63;;;3.10;;
55364;SDS011;41245;45.384;20.390;2022-07-04T11:20:24;6.43;;;3.30;;
55364;SDS011;41245;45.384;20.390;2022-07-04T11:22:51;8.15;;;3.40;;
55364;SDS011;41245;45.384;20.390;2022-07-04T11:25:17;6.60;;;3.30;;
55364;SDS011;41245;45.384;20.390;2022-07-04T11:27:43;4.03;;;3.15;;
55364;SDS011;41245;45.384;20.390;2022-07-04T11:30:09;5.85;;;3.38;;
55364;SDS011;41245;45.384;20.390;2022-07-04T11:32:36;5.00;;;3.95;;
55364;SDS011;41245;45.384;20.390;2022-07-04T11:35:03;6.32;;;3.75;;
55364;SDS011;41245;45.384;20.390;2022-07-04T11:37:30;5.50;;;3.05;;
55364;SDS011;41245;45.384;20.390;2022-07-04T11:39:56;5.90;;;3.63;;
55364;SDS011;41245;45.384;20.390;2022-07-04T11:43:02;4.70;;;3.30;;
55364;SDS011;41245;45.384;20.390;2022-07-04T11:45:48;5.20;;;3.00;;
55364;SDS011;41245;45.384;20.390;2022-07-04T11:48:24;7.32;;;3.40;;
55364;SDS011;41245;45.384;20.390;2022-07-04T11:50:50;10.02;;;3.50;;
55364;SDS011;41245;45.384;20.390;2022-07-04T11:53:17;5.90;;;4.22;;
55364;SDS011;41245;45.384;20.390;2022-07-04T11:55:52;8.90;;;4.45;;
55364;SDS011;41245;45.384;20.390;2022-07-04T11:58:20;6.82;;;4.18;;
55364;SDS011;41245;45.384;20.390;2022-07-04T12:00:47;9.30;;;3.40;;
55364;SDS011;41245;45.384;20.390;2022-07-04T12:03:13;4.10;;;2.83;;
55364;SDS011;41245;45.384;20.390;2022-07-04T12:05:39;4.93;;;3.45;;
55364;SDS011;41245;45.384;20.390;2022-07-04T12:08:04;6.45;;;4.40;;
55364;SDS011;41245;45.384;20.390;2022-07-04T12:10:33;9.13;;;5.05;;
55364;SDS011;41245;45.384;20.390;2022-07-04T12:12:59;5.63;;;4.03;;
55364;SDS011;41245;45.384;20.390;2022-07-04T12:15:38;10.88;;;4.10;;
55364;SDS011;41245;45.384;20.390;2022-07-04T12:18:17;4.82;;;3.58;;
55364;SDS011;41245;45.384;20.390;2022-07-04T12:21:10;6.43;;;3.17;;
55364;SDS011;41245;45.384;20.390;2022-07-04T12:23:38;14.65;;;3.17;;
55364;SDS011;41245;45.384;20.390;2022-07-04T12:26:05;7.15;;;4.38;;
55364;SDS011;41245;45.384;20.390;2022-07-04T12:28:34;6.35;;;3.72;;
55364;SDS011;41245;45.384;20.390;2022-07-04T12:31:04;7.45;;;3.45;;
55364;SDS011;41245;45.384;20.390;2022-07-04T12:33:29;5.00;;;3.10;;
55364;SDS011;41245;45.384;20.390;2022-07-04T12:35:56;3.70;;;3.03;;
55364;SDS011;41245;45.384;20.390;2022-07-04T12:40:57;6.95;;;3.10;;
55364;SDS011;41245;45.384;20.390;2022-07-04T12:46:09;5.72;;;3.22;;
55364;SDS011;41245;45.384;20.390;2022-07-04T12:48:51;2.50;;;2.30;;
55364;SDS011;41245;45.384;20.390;2022-07-04T12:51:19;5.22;;;2.65;;
55364;SDS011;41245;45.384;20.390;2022-07-04T12:53:45;3.75;;;1.85;;
55364;SDS011;41245;45.384;20.390;2022-07-04T12:59:05;4.85;;;2.38;;
55364;SDS011;41245;45.384;20.390;2022-07-04T13:01:35;9.85;;;3.95;;
55364;SDS011;41245;45.384;20.390;2022-07-04T13:04:01;3.55;;;2.20;;
55364;SDS011;41245;45.384;20.390;2022-07-04T13:06:27;6.30;;;2.75;;
55364;SDS011;41245;45.384;20.390;2022-07-04T13:08:54;2.78;;;1.92;;
55364;SDS011;41245;45.384;20.390;2022-07-04T13:11:21;5.68;;;1.85;;
55364;SDS011;41245;45.384;20.390;2022-07-04T13:14:06;7.85;;;2.00;;
55364;SDS011;41245;45.384;20.390;2022-07-04T13:16:33;4.88;;;2.10;;
55364;SDS011;41245;45.384;20.390;2022-07-04T13:18:59;5.45;;;2.60;;
55364;SDS011;41245;45.384;20.390;2022-07-04T13:21:24;2.38;;;2.03;;
55364;SDS011;41245;45.384;20.390;2022-07-04T13:23:51;6.10;;;2.03;;
55364;SDS011;41245;45.384;20.390;2022-07-04T13:26:17;3.80;;;2.15;;
55364;SDS011;41245;45.384;20.390;2022-07-04T13:28:43;7.97;;;1.95;;
55364;SDS011;41245;45.384;20.390;2022-07-04T13:31:09;4.10;;;1.83;;
55364;SDS011;41245;45.384;20.390;2022-07-04T13:33:35;2.55;;;1.75;;
55364;SDS011;41245;45.384;20.390;2022-07-04T13:36:01;9.35;;;2.10;;
55364;SDS011;41245;45.384;20.390;2022-07-04T13:38:27;2.10;;;1.60;;
55364;SDS011;41245;45.384;20.390;2022-07-04T13:40:54;1.83;;;1.38;;
55364;SDS011;41245;45.384;20.390;2022-07-04T13:43:22;5.45;;;2.10;;
55364;SDS011;41245;45.384;20.390;2022-07-04T13:45:49;2.63;;;1.85;;
55364;SDS011;41245;45.384;20.390;2022-07-04T13:48:14;4.22;;;1.60;;
55364;SDS011;41245;45.384;20.390;2022-07-04T13:50:40;6.88;;;2.47;;
55364;SDS011;41245;45.384;20.390;2022-07-04T13:53:06;4.20;;;2.08;;
55364;SDS011;41245;45.384;20.390;2022-07-04T13:55:33;4.47;;;1.95;;
55364;SDS011;41245;45.384;20.390;2022-07-04T13:58:06;3.33;;;1.40;;
55364;SDS011;41245;45.384;20.390;2022-07-04T14:00:33;6.13;;;2.60;;
55364;SDS011;41245;45.384;20.390;2022-07-04T14:03:00;6.15;;;1.95;;
55364;SDS011;41245;45.384;20.390;2022-07-04T14:05:25;2.42;;;1.30;;
55364;SDS011;41245;45.384;20.390;2022-07-04T14:07:52;3.33;;;1.42;;
55364;SDS011;41245;45.384;20.390;2022-07-04T14:10:18;2.72;;;1.58;;
55364;SDS011;41245;45.384;20.390;2022-07-04T14:12:44;6.95;;;1.50;;
55364;SDS011;41245;45.384;20.390;2022-07-04T14:15:11;8.80;;;2.17;;
55364;SDS011;41245;45.384;20.390;2022-07-04T14:17:37;6.88;;;2.15;;
55364;SDS011;41245;45.384;20.390;2022-07-04T14:20:03;1.65;;;1.33;;
55364;SDS011;41245;45.384;20.390;2022-07-04T14:22:30;3.10;;;0.93;;
55364;SDS011;41245;45.384;20.390;2022-07-04T14:24:56;3.85;;;1.40;;
55364;SDS011;41245;45.384;20.390;2022-07-04T14:27:22;4.90;;;1.60;;
55364;SDS011;41245;45.384;20.390;2022-07-04T14:29:48;2.25;;;1.40;;
55364;SDS011;41245;45.384;20.390;2022-07-04T14:32:13;1.25;;;1.10;;
55364;SDS011;41245;45.384;20.390;2022-07-04T14:34:39;1.75;;;1.33;;
55364;SDS011;41245;45.384;20.390;2022-07-04T14:37:05;6.68;;;1.55;;
55364;SDS011;41245;45.384;20.390;2022-07-04T14:39:31;3.13;;;1.05;;
55364;SDS011;41245;45.384;20.390;2022-07-04T14:41:56;3.70;;;1.10;;
55364;SDS011;41245;45.384;20.390;2022-07-04T14:44:22;4.30;;;1.27;;
55364;SDS011;41245;45.384;20.390;2022-07-04T14:46:48;2.58;;;1.00;;
55364;SDS011;41245;45.384;20.390;2022-07-04T14:49:14;12.93;;;3.30;;
55364;SDS011;41245;45.384;20.390;2022-07-04T14:51:39;1.70;;;1.58;;
55364;SDS011;41245;45.384;20.390;2022-07-04T14:54:08;2.28;;;1.23;;
55364;SDS011;41245;45.384;20.390;2022-07-04T14:56:35;1.17;;;0.90;;
55364;SDS011;41245;45.384;20.390;2022-07-04T14:59:02;1.27;;;1.15;;
55364;SDS011;41245;45.384;20.390;2022-07-04T15:01:28;8.50;;;1.02;;